Time;durP1;ratioP1;P1;durP2;ratioP2;P2;SDS_P1;SDS_P2;PMS_P1;PMS_P2;Temp;Humidity;BMP_temperature;BMP_pressure;BME280_temperature;BME280_humidity;BME280_pressure;Samples;Min_cycle;Max_cycle;Signal;HPM_P1;HPM_P2
2021/05/27 00:00:54;;;;;;;12.07;8.43;;;;;;;13.67;100.00;100599.55;1761811;79;21383;-65
2021/05/27 00:03:20;;;;;;;12.13;9.13;;;;;;;13.60;100.00;100598.23;1761946;80;21802;-64
2021/05/27 00:05:47;;;;;;;15.40;8.93;;;;;;;13.57;100.00;100597.30;1773032;79;21761;-67
2021/05/27 00:08:14;;;;;;;12.93;7.03;;;;;;;13.55;100.00;100596.67;1772639;80;21700;-68
2021/05/27 00:10:41;;;;;;;7.20;4.53;;;;;;;13.54;100.00;100593.75;1772939;79;21554;-68
2021/05/27 00:13:07;;;;;;;8.30;3.77;;;;;;;13.61;100.00;100599.84;1771402;79;21640;-67
2021/05/27 00:15:36;;;;;;;6.40;3.30;;;;;;;13.61;100.00;100599.84;1771158;79;21466;-61
2021/05/27 00:18:05;;;;;;;5.83;3.30;;;;;;;13.60;100.00;100598.23;1770691;79;21753;-67
2021/05/27 00:20:31;;;;;;;4.33;3.17;;;;;;;13.60;100.00;100598.23;1773357;79;21532;-67
2021/05/27 00:22:58;;;;;;;7.53;3.73;;;;;;;13.54;100.00;100592.44;1768524;79;21599;-68
2021/05/27 00:25:24;;;;;;;10.63;5.60;;;;;;;13.56;100.00;100593.88;1774122;79;21683;-67
2021/05/27 00:27:52;;;;;;;10.37;4.60;;;;;;;13.55;100.00;100588.31;1773060;79;21992;-62
2021/05/27 00:30:20;;;;;;;6.33;3.27;;;;;;;13.53;100.00;100594.77;1785924;79;21695;-67
2021/05/27 00:32:48;;;;;;;7.97;4.80;;;;;;;13.52;100.00;100595.75;1773339;79;21544;-68
2021/05/27 00:35:15;;;;;;;6.97;4.20;;;;;;;13.42;100.00;100592.69;1774625;79;21655;-67
2021/05/27 00:37:42;;;;;;;9.33;5.60;;;;;;;13.42;100.00;100592.69;1775463;79;22179;-61
2021/05/27 00:40:10;;;;;;;9.67;4.80;;;;;;;13.32;100.00;100595.64;1772737;79;21683;-69
2021/05/27 00:42:38;;;;;;;11.33;7.37;;;;;;;13.17;100.00;100597.03;1769777;79;21536;-67
2021/05/27 00:45:09;;;;;;;11.97;7.70;;;;;;;13.10;100.00;100596.17;1770558;80;21441;-62
2021/05/27 00:47:38;;;;;;;10.53;6.80;;;;;;;13.10;100.00;100596.17;1751304;80;22941;-67
2021/05/27 00:50:09;;;;;;;10.30;6.83;;;;;;;12.99;100.00;100596.19;1746428;80;21001;-67
2021/05/27 00:52:35;;;;;;;8.83;6.58;;;;;;;12.99;100.00;100596.19;1751928;80;27023;-69
2021/05/27 00:55:06;;;;;;;9.00;6.60;;;;;;;12.98;100.00;100595.08;1772887;79;20961;-65
2021/05/27 00:57:37;;;;;;;9.83;5.47;;;;;;;12.98;100.00;100595.08;1752923;80;21691;-61
2021/05/27 01:00:09;;;;;;;9.20;6.50;;;;;;;12.99;100.00;100604.55;1780379;79;21490;-68
2021/05/27 01:02:35;;;;;;;12.47;6.60;;;;;;;12.99;100.00;100604.55;1771533;80;22075;-67
2021/05/27 01:05:04;;;;;;;8.47;6.90;;;;;;;12.97;100.00;100609.98;1757826;80;21783;-61
2021/05/27 01:07:34;;;;;;;10.43;6.50;;;;;;;12.85;100.00;100614.92;1764912;79;21754;-65
2021/05/27 01:10:05;;;;;;;9.20;7.00;;;;;;;12.85;100.00;100614.92;1739503;79;22134;-66
2021/05/27 01:12:32;;;;;;;13.37;7.40;;;;;;;12.82;100.00;100615.80;1772091;80;22004;-67
2021/05/27 01:17:49;;;;;;;9.30;6.40;;;;;;;12.70;100.00;100620.73;1770382;80;22539;-68
2021/05/27 01:20:17;;;;;;;9.17;5.77;;;;;;;12.66;100.00;100616.87;1766677;79;21969;-66
2021/05/27 01:22:45;;;;;;;7.70;6.20;;;;;;;12.63;100.00;100615.94;1772967;79;21406;-67
2021/05/27 01:25:12;;;;;;;10.43;6.10;;;;;;;12.63;100.00;100620.66;1764370;79;21338;-67
2021/05/27 01:27:40;;;;;;;10.57;5.83;;;;;;;12.62;100.00;100622.17;1769469;79;21990;-66
2021/05/27 01:30:09;;;;;;;10.33;4.90;;;;;;;12.54;100.00;100613.95;1765415;79;21551;-62
2021/05/27 01:32:38;;;;;;;10.10;5.28;;;;;;;12.54;100.00;100613.95;1770729;79;21515;-67
2021/05/27 01:35:09;;;;;;;10.67;5.03;;;;;;;12.57;100.00;100627.13;1767950;79;21021;-67
2021/05/27 01:37:37;;;;;;;8.65;5.28;;;;;;;12.55;100.00;100626.52;1766840;79;21390;-65
2021/05/27 01:40:06;;;;;;;12.97;5.07;;;;;;;12.60;100.00;100634.11;1762462;80;22493;-68
2021/05/27 01:42:33;;;;;;;7.97;5.47;;;;;;;12.60;100.00;100634.11;1764102;79;21372;-68
2021/05/27 01:45:00;;;;;;;10.73;6.10;;;;;;;12.55;100.00;100626.02;1762572;79;21493;-67
2021/05/27 01:47:27;;;;;;;6.80;5.00;;;;;;;12.54;100.00;100629.64;1769090;79;21797;-68
2021/05/27 01:49:53;;;;;;;5.90;4.27;;;;;;;12.59;100.00;100631.69;1766093;79;21528;-62
2021/05/27 01:52:20;;;;;;;9.50;5.13;;;;;;;12.59;100.00;100631.69;1759342;80;21431;-67
2021/05/27 01:54:47;;;;;;;13.40;6.13;;;;;;;12.58;100.00;100628.77;1762443;79;21309;-67
2021/05/27 01:57:14;;;;;;;9.57;5.33;;;;;;;12.61;100.00;100625.76;1759714;79;21579;-67
2021/05/27 01:59:41;;;;;;;10.67;5.50;;;;;;;12.76;100.00;100620.46;1757996;79;21373;-67
2021/05/27 02:02:09;;;;;;;8.70;6.03;;;;;;;12.82;100.00;100627.57;1780512;79;21480;-67
2021/05/27 02:04:36;;;;;;;8.57;6.80;;;;;;;12.85;100.00;100618.04;1757967;79;21430;-67
2021/05/27 02:07:15;;;;;;;10.70;5.33;;;;;;;12.91;100.00;100619.38;1778844;78;22672;-68
2021/05/27 02:09:44;;;;;;;9.20;5.50;;;;;;;13.02;100.00;100623.80;1782719;78;21979;-64
2021/05/27 02:12:11;;;;;;;7.97;6.03;;;;;;;13.05;100.00;100627.34;1777443;79;21000;-67
2021/05/27 02:14:38;;;;;;;9.27;6.47;;;;;;;13.08;100.00;100624.36;1777075;79;21543;-67
2021/05/27 02:17:05;;;;;;;8.87;5.93;;;;;;;13.08;100.00;100624.36;1778712;78;22168;-68
2021/05/27 02:19:32;;;;;;;9.03;5.80;;;;;;;13.11;100.00;100625.30;1777924;79;22183;-65
2021/05/27 02:21:59;;;;;;;9.67;5.90;;;;;;;13.19;100.00;100621.22;1776842;79;21791;-67
2021/05/27 02:24:32;;;;;;;9.98;5.62;;;;;;;13.23;100.00;100618.55;1779304;79;21321;-66
2021/05/27 02:26:59;;;;;;;11.93;7.03;;;;;;;13.29;100.00;100623.00;1750729;79;21613;-67
2021/05/27 02:29:26;;;;;;;9.93;6.47;;;;;;;13.40;100.00;100628.22;1776003;79;21590;-62
2021/05/27 02:31:55;;;;;;;12.80;5.93;;;;;;;13.40;100.00;100628.22;1772197;79;21919;-62
2021/05/27 02:34:23;;;;;;;13.50;10.80;;;;;;;13.46;100.00;100631.89;1775509;79;21712;-68
2021/05/27 02:36:51;;;;;;;8.40;5.73;;;;;;;13.51;100.00;100626.87;1775195;79;21691;-68
2021/05/27 02:39:19;;;;;;;10.27;5.63;;;;;;;13.56;100.00;100631.02;1778389;79;23256;-61
2021/05/27 02:41:47;;;;;;;8.10;5.20;;;;;;;13.61;100.00;100635.20;1752122;79;21640;-64
2021/05/27 02:44:16;;;;;;;9.50;5.43;;;;;;;13.66;100.00;100623.63;1750903;79;21633;-68
2021/05/27 02:46:46;;;;;;;9.80;5.37;;;;;;;13.78;100.00;100629.12;1719453;81;21659;-67
2021/05/27 02:49:14;;;;;;;7.83;5.90;;;;;;;13.91;100.00;100627.88;1751688;80;21644;-61
2021/05/27 02:51:42;;;;;;;7.10;5.60;;;;;;;14.06;100.00;100625.92;1754468;79;21403;-61
2021/05/27 02:54:09;;;;;;;8.67;5.77;;;;;;;14.34;100.00;100628.41;1752158;80;21589;-66
2021/05/27 02:56:37;;;;;;;7.90;4.70;;;;;;;14.84;100.00;100624.96;1758928;80;21084;-67
2021/05/27 02:59:05;;;;;;;7.57;4.13;;;;;;;15.55;100.00;100629.53;1781503;78;20952;-61
2021/05/27 03:01:33;;;;;;;7.43;4.77;;;;;;;16.42;100.00;100625.23;1762580;77;21064;-67
2021/05/27 03:04:00;;;;;;;7.57;5.20;;;;;;;17.20;100.00;100621.70;1757365;80;21303;-63
2021/05/27 03:06:27;;;;;;;8.37;4.83;;;;;;;17.69;100.00;100622.61;1749908;80;21084;-65
2021/05/27 03:08:54;;;;;;;9.17;4.40;;;;;;;18.04;100.00;100611.97;1755243;80;21091;-61
2021/05/27 03:11:22;;;;;;;8.27;4.13;;;;;;;18.45;100.00;100617.78;1750580;80;20940;-66
2021/05/27 03:13:51;;;;;;;11.80;4.70;;;;;;;18.76;100.00;100617.23;1756337;80;21565;-65
2021/05/27 03:16:20;;;;;;;6.27;4.07;;;;;;;18.86;100.00;100620.09;1748760;81;21659;-68
2021/05/27 03:18:49;;;;;;;7.03;4.43;;;;;;;18.75;100.00;100618.25;1750488;80;21660;-69
2021/05/27 03:21:16;;;;;;;9.77;4.40;;;;;;;18.52;100.00;100615.82;1735151;80;21101;-68
2021/05/27 03:23:43;;;;;;;6.37;4.40;;;;;;;18.36;100.00;100617.28;1749836;80;22319;-64
2021/05/27 03:26:09;;;;;;;7.47;4.73;;;;;;;18.30;100.00;100619.52;1738994;80;21553;-66
2021/05/27 03:28:37;;;;;;;9.07;4.23;;;;;;;18.42;100.00;100620.87;1741586;80;21498;-67
2021/05/27 03:31:06;;;;;;;7.87;4.27;;;;;;;18.82;100.00;100625.03;1740890;80;21044;-62
2021/05/27 03:33:34;;;;;;;6.43;4.47;;;;;;;19.22;100.00;100619.59;1741734;80;22221;-68
2021/05/27 03:36:04;;;;;;;6.73;4.40;;;;;;;19.64;100.00;100617.08;1726037;80;20885;-67
2021/05/27 03:38:32;;;;;;;7.10;4.93;;;;;;;20.00;100.00;100626.22;1731760;80;21029;-67
2021/05/27 03:41:00;;;;;;;7.70;4.40;;;;;;;20.03;100.00;100621.27;1710787;82;21078;-66
2021/05/27 03:43:26;;;;;;;9.70;4.90;;;;;;;19.89;100.00;100615.98;1709061;82;21046;-68
2021/05/27 03:45:53;;;;;;;11.83;8.33;;;;;;;19.81;100.00;100621.62;1741505;80;21080;-66
2021/05/27 03:48:21;;;;;;;22.60;17.50;;;;;;;19.72;100.00;100621.72;1741376;80;21015;-66
2021/05/27 03:50:48;;;;;;;20.60;17.23;;;;;;;19.63;100.00;100625.26;1739456;80;20878;-65
2021/05/27 03:53:17;;;;;;;11.73;10.37;;;;;;;19.42;100.00;100627.95;1741296;80;20997;-64
2021/05/27 03:55:45;;;;;;;9.13;6.90;;;;;;;19.17;100.00;100621.62;1741315;80;21032;-60
2021/05/27 04:00:59;;;;;;;9.90;6.00;;;;;;;18.85;100.00;100629.06;1737342;80;21311;-64
2021/05/27 04:03:27;;;;;;;7.83;5.93;;;;;;;18.79;100.00;100627.32;1717127;81;21043;-63
2021/05/27 04:08:39;;;;;;;7.67;5.67;;;;;;;18.98;100.00;100630.17;1747905;80;20929;-66
2021/05/27 04:11:06;;;;;;;9.50;5.87;;;;;;;18.98;100.00;100639.42;1752851;80;21143;-70
2021/05/27 04:13:34;;;;;;;8.47;6.37;;;;;;;18.92;100.00;100636.36;1754914;80;21647;-68
2021/05/27 04:16:00;;;;;;;9.37;5.27;;;;;;;19.03;100.00;100630.80;1753474;80;21179;-66
2021/05/27 04:18:28;;;;;;;7.77;4.53;;;;;;;19.13;100.00;100627.05;1747423;80;21037;-61
2021/05/27 04:20:56;;;;;;;5.67;4.20;;;;;;;19.34;100.00;100636.25;1745495;80;21080;-67
2021/05/27 04:23:38;;;;;;;7.97;3.83;;;;;;;19.54;100.00;100626.61;1750796;80;21083;-61
2021/05/27 04:26:13;;;;;;;5.80;3.63;;;;;;;19.67;100.00;100630.36;1744124;80;20922;-65
2021/05/27 04:28:40;;;;;;;7.27;4.03;;;;;;;20.01;100.00;100629.17;1751290;80;20933;-64
2021/05/27 04:31:12;;;;;;;7.13;3.87;;;;;;;21.11;100.00;100620.68;1746677;80;20998;-60
2021/05/27 04:33:54;;;;;;;8.57;4.30;;;;;;;22.34;100.00;100618.16;1743705;80;21284;-65
2021/05/27 04:36:22;;;;;;;11.00;3.80;;;;;;;23.10;100.00;100613.95;1747049;80;22285;-65
2021/05/27 04:38:49;;;;;;;6.47;3.70;;;;;;;23.60;100.00;100612.63;1750487;80;21004;-61
2021/05/27 04:41:17;;;;;;;8.70;4.03;;;;;;;24.51;100.00;100617.91;1739228;80;21082;-66
2021/05/27 04:43:47;;;;;;;6.47;3.83;;;;;;;25.61;100.00;100609.13;1750004;80;21463;-68
2021/05/27 04:46:15;;;;;;;6.28;3.50;;;;;;;26.62;100.00;100604.19;1742520;80;21087;-67
2021/05/27 04:48:42;;;;;;;6.10;3.40;;;;;;;27.59;100.00;100599.13;1748872;80;21154;-64
2021/05/27 04:51:09;;;;;;;5.42;3.05;;;;;;;28.72;88.86;100597.44;1735562;80;22361;-66
2021/05/27 04:53:36;;;;;;;16.05;5.50;;;;;;;29.80;60.60;100599.02;1748981;80;20961;-66
2021/05/27 04:56:04;;;;;;;11.33;8.25;;;;;;;30.21;60.12;100604.83;1745550;80;21563;-67
2021/05/27 04:58:32;;;;;;;7.43;5.00;;;;;;;30.14;54.34;100600.95;1750917;80;20985;-66
2021/05/27 05:00:59;;;;;;;6.83;4.10;;;;;;;30.35;52.04;100601.28;1726911;80;21505;-66
2021/05/27 05:03:26;;;;;;;6.80;3.77;;;;;;;30.91;48.17;100602.52;1713348;82;21089;-66
2021/05/27 05:05:53;;;;;;;4.12;2.85;;;;;;;31.49;45.02;100598.19;1740729;82;21581;-66
2021/05/27 05:08:19;;;;;;;7.10;2.92;;;;;;;32.07;43.56;100596.16;1704076;82;21079;-67
2021/05/27 05:10:46;;;;;;;7.47;3.58;;;;;;;32.74;39.70;100600.70;1709067;82;20886;-66
2021/05/27 05:13:13;;;;;;;6.03;3.45;;;;;;;33.22;38.06;100604.37;1698850;81;21096;-66
2021/05/27 05:15:42;;;;;;;5.05;3.70;;;;;;;33.71;35.83;100595.80;1708422;83;20993;-65
2021/05/27 05:18:11;;;;;;;5.35;3.83;;;;;;;34.04;34.74;100591.23;1736885;82;21095;-66
2021/05/27 05:20:44;;;;;;;7.70;4.92;;;;;;;34.43;33.38;100587.72;1709959;83;21027;-65
2021/05/27 05:23:12;;;;;;;7.05;3.83;;;;;;;34.91;32.23;100592.98;1708688;81;21046;-66
2021/05/27 05:25:40;;;;;;;7.70;3.55;;;;;;;35.15;31.52;100585.41;1740099;80;21148;-65
2021/05/27 05:28:07;;;;;;;6.40;3.52;;;;;;;35.27;31.55;100594.08;1737946;80;21058;-65
2021/05/27 05:30:34;;;;;;;9.78;3.45;;;;;;;35.54;31.29;100581.19;1741852;82;21052;-62
2021/05/27 05:33:03;;;;;;;5.20;3.58;;;;;;;35.81;30.63;100582.90;1738485;80;20933;-65
2021/05/27 05:35:30;;;;;;;5.92;3.10;;;;;;;36.05;30.16;100581.44;1740816;80;21568;-62
2021/05/27 05:37:58;;;;;;;7.83;2.98;;;;;;;36.63;29.43;100578.83;1738997;80;22416;-65
2021/05/27 05:40:27;;;;;;;6.00;2.70;;;;;;;37.22;28.50;100580.02;1738497;80;20897;-67
2021/05/27 05:42:53;;;;;;;7.37;3.50;;;;;;;37.72;27.65;100581.64;1739641;80;21818;-67
2021/05/27 05:45:20;;;;;;;6.55;3.80;;;;;;;37.80;27.07;100580.63;1741315;80;21051;-65
2021/05/27 05:47:49;;;;;;;7.65;4.30;;;;;;;37.45;27.75;100582.86;1739084;80;20944;-66
2021/05/27 05:51:00;;;;;;;9.03;3.67;;;;;;;37.46;27.67;100581.70;1740469;80;21948;-67
2021/05/27 05:52:49;;;;;;;7.62;3.85;;;;;;;37.60;28.54;100577.14;1717827;80;21014;-65
2021/05/27 05:55:16;;;;;;;8.28;3.87;;;;;;;37.85;28.12;100576.84;1734432;80;21036;-68
2021/05/27 05:57:43;;;;;;;6.62;3.77;;;;;;;37.93;27.71;100576.64;1739051;80;21591;-67
2021/05/27 06:00:32;;;;;;;7.10;3.25;;;;;;;37.84;27.70;100576.03;1739525;80;22199;-68
2021/05/27 06:02:58;;;;;;;7.35;2.90;;;;;;;37.54;26.70;100577.78;1674532;84;21128;-71
2021/05/27 06:05:36;;;;;;;6.92;2.92;;;;;;;37.04;27.11;100577.48;1666313;84;21134;-70
2021/05/27 06:08:05;;;;;;;5.65;3.02;;;;;;;37.15;27.48;100571.70;1677678;84;21080;-73
2021/05/27 06:10:32;;;;;;;6.95;3.30;;;;;;;37.29;27.89;100566.37;1712138;82;21049;-71
2021/05/27 06:12:59;;;;;;;4.87;2.77;;;;;;;37.32;27.25;100565.67;1712854;82;21135;-72
2021/05/27 06:15:27;;;;;;;5.60;2.72;;;;;;;37.11;27.43;100566.77;1713680;82;21233;-71
2021/05/27 06:17:54;;;;;;;4.15;2.40;;;;;;;37.30;27.43;100566.01;1720876;81;21514;-72
2021/05/27 06:20:21;;;;;;;10.23;2.85;;;;;;;37.83;27.18;100556.78;1709056;82;21566;-72
2021/05/27 06:22:50;;;;;;;4.67;2.67;;;;;;;38.16;26.17;100558.96;1689398;82;20964;-72
2021/05/27 06:25:19;;;;;;;5.12;2.58;;;;;;;38.15;25.79;100552.50;1674418;84;21054;-68
2021/05/27 06:27:46;;;;;;;5.90;2.50;;;;;;;38.00;25.91;100557.48;1674565;84;21455;-71
2021/05/27 06:30:14;;;;;;;7.35;2.77;;;;;;;37.52;26.67;100556.39;1713353;82;21048;-71
2021/05/27 06:32:41;;;;;;;6.40;2.10;;;;;;;37.54;27.20;100550.00;1665875;85;21041;-71
2021/05/27 06:35:10;;;;;;;4.58;2.42;;;;;;;37.65;26.82;100542.05;1673785;83;21201;-71
2021/05/27 06:37:38;;;;;;;5.50;2.20;;;;;;;37.56;25.20;100542.28;1678039;83;21077;-71
2021/05/27 06:40:08;;;;;;;;;;;;;;;37.36;24.34;100542.05;1678140;85;21152;-71
2021/05/27 06:42:35;;;;;;;5.65;1.90;;;;;;;37.33;25.16;100544.91;1674809;84;20230;-69
2021/05/27 06:45:03;;;;;;;4.33;1.95;;;;;;;37.33;24.27;100542.77;1671638;83;21424;-72
2021/05/27 06:47:30;;;;;;;3.65;1.77;;;;;;;37.33;23.57;100540.05;1679910;84;21107;-71
2021/05/27 06:49:56;;;;;;;3.22;2.10;;;;;;;37.35;23.15;100536.38;1672365;85;21105;-72
2021/05/27 06:52:23;;;;;;;3.70;1.80;;;;;;;37.37;23.84;100532.75;1679843;83;21088;-72
2021/05/27 06:54:51;;;;;;;3.25;1.90;;;;;;;37.77;23.74;100536.45;1679908;83;21033;-70
2021/05/27 06:57:18;;;;;;;3.02;1.65;;;;;;;37.86;24.18;100527.50;1676297;83;21499;-68
2021/05/27 06:59:45;;;;;;;6.65;1.57;;;;;;;38.01;24.63;100520.98;1675750;84;21153;-71
2021/05/27 07:02:11;;;;;;;2.62;1.50;;;;;;;38.08;22.47;100523.83;1704545;81;21598;-72
2021/05/27 07:04:38;;;;;;;3.85;1.75;;;;;;;37.67;22.75;100530.25;1716885;81;21004;-71
2021/05/27 07:07:05;;;;;;;4.62;1.92;;;;;;;37.22;23.58;100518.08;1712762;81;21120;-72
2021/05/27 07:09:32;;;;;;;7.00;2.00;;;;;;;37.13;23.64;100523.73;1706084;81;21182;-72
2021/05/27 07:12:00;;;;;;;2.17;1.12;;;;;;;37.50;24.25;100528.17;1688977;82;21347;-71
2021/05/27 07:14:27;;;;;;;1.52;1.02;;;;;;;37.87;21.83;100522.25;1711300;82;21108;-73
2021/05/27 07:16:55;;;;;;;2.87;1.20;;;;;;;37.52;21.41;100524.33;1697814;82;21139;-71
2021/05/27 07:19:22;;;;;;;1.82;1.17;;;;;;;37.12;21.88;100522.70;1713591;82;21083;-65
2021/05/27 07:21:48;;;;;;;1.60;0.80;;;;;;;37.15;21.77;100522.00;1704552;82;20997;-70
2021/05/27 07:24:15;;;;;;;1.90;0.90;;;;;;;37.14;20.53;100519.08;1714067;82;21478;-72
2021/05/27 07:26:42;;;;;;;2.08;0.95;;;;;;;36.58;19.96;100515.28;1705113;83;20958;-68
2021/05/27 07:29:09;;;;;;;2.98;1.37;;;;;;;36.07;21.82;100520.05;1697639;82;21636;-72
2021/05/27 07:31:37;;;;;;;2.37;1.00;;;;;;;35.71;21.24;100515.58;1709641;82;21883;-68
2021/05/27 07:34:05;;;;;;;2.55;0.80;;;;;;;35.19;22.21;100505.58;1700007;82;22017;-73
2021/05/27 07:36:33;;;;;;;2.33;1.17;;;;;;;34.84;22.04;100513.63;1710613;82;20964;-74
2021/05/27 07:38:59;;;;;;;1.75;0.90;;;;;;;34.38;22.51;100510.23;1704240;82;20894;-71
2021/05/27 07:41:26;;;;;;;4.85;1.22;;;;;;;34.13;24.06;100505.92;1706938;82;21948;-72
2021/05/27 07:43:53;;;;;;;2.90;1.52;;;;;;;33.87;23.84;100515.09;1703857;82;20981;-76
2021/05/27 07:46:21;;;;;;;4.15;0.95;;;;;;;33.82;23.11;100506.39;1705426;82;21131;-74
2021/05/27 07:48:47;;;;;;;2.25;1.30;;;;;;;34.12;23.48;100504.34;1706819;82;20954;-67
2021/05/27 07:51:14;;;;;;;3.70;1.17;;;;;;;34.58;23.49;100500.45;1710436;82;21025;-74
2021/05/27 07:53:41;;;;;;;2.60;1.20;;;;;;;35.04;23.33;100498.41;1704515;82;21732;-74
2021/05/27 07:56:08;;;;;;;1.42;0.95;;;;;;;35.08;21.74;100499.30;1707934;82;21037;-73
2021/05/27 07:58:35;;;;;;;3.87;1.20;;;;;;;34.80;21.69;100495.13;1711588;81;20973;-75
2021/05/27 08:01:04;;;;;;;2.33;1.10;;;;;;;34.52;22.34;100497.77;1713419;81;21195;-72
2021/05/27 08:03:32;;;;;;;3.40;1.10;;;;;;;34.45;23.40;100498.86;1706469;83;21144;-73
2021/05/27 08:05:58;;;;;;;3.62;1.50;;;;;;;34.66;22.30;100489.84;1689245;83;21038;-69
2021/05/27 08:08:25;;;;;;;4.75;1.85;;;;;;;34.91;22.09;100485.98;1707758;82;21120;-76
2021/05/27 08:10:52;;;;;;;2.58;1.10;;;;;;;35.37;21.25;100489.26;1705200;82;21689;-74
2021/05/27 08:13:19;;;;;;;1.80;1.10;;;;;;;35.55;20.84;100491.93;1700861;83;21092;-74
2021/05/27 08:15:46;;;;;;;1.50;1.20;;;;;;;35.37;21.01;100485.77;1709178;83;21450;-70
2021/05/27 08:18:12;;;;;;;2.58;1.27;;;;;;;34.95;20.95;100487.44;1706669;83;22043;-72
2021/05/27 08:20:39;;;;;;;2.20;1.20;;;;;;;34.55;21.40;100491.68;1704507;83;21132;-75
2021/05/27 08:23:05;;;;;;;3.40;1.25;;;;;;;34.11;21.87;100491.38;1705414;82;22314;-69
2021/05/27 08:25:32;;;;;;;1.85;1.10;;;;;;;33.92;21.90;100483.55;1706919;83;21116;-74
2021/05/27 08:27:59;;;;;;;2.00;1.20;;;;;;;34.09;21.64;100479.31;1707126;82;21033;-75
2021/05/27 08:30:26;;;;;;;3.15;1.37;;;;;;;34.30;22.21;100486.78;1707855;82;22216;-71
2021/05/27 08:32:52;;;;;;;1.62;1.17;;;;;;;34.45;21.93;100489.38;1702464;83;21370;-73
2021/05/27 08:35:20;;;;;;;3.17;1.20;;;;;;;34.18;23.36;100487.34;1705817;82;21116;-72
2021/05/27 08:37:48;;;;;;;1.87;1.50;;;;;;;34.14;21.51;100481.81;1711329;82;21143;-73
2021/05/27 08:40:15;;;;;;;2.02;1.40;;;;;;;34.00;21.62;100486.75;1704455;82;21555;-72
2021/05/27 08:42:42;;;;;;;3.80;1.30;;;;;;;33.62;21.39;100476.36;1703105;82;21443;-73
2021/05/27 08:45:10;;;;;;;3.42;1.50;;;;;;;33.70;21.98;100473.34;1689693;83;21110;-74
2021/05/27 08:47:36;;;;;;;2.02;1.20;;;;;;;33.95;22.40;100467.45;1711557;82;22180;-73
2021/05/27 08:50:05;;;;;;;2.80;1.52;;;;;;;34.19;23.68;100469.41;1702860;83;22490;-72
2021/05/27 08:52:31;;;;;;;3.65;1.10;;;;;;;34.38;22.49;100472.91;1701811;82;21554;-74
2021/05/27 08:54:59;;;;;;;2.10;1.30;;;;;;;34.17;22.16;100484.39;1702886;83;22209;-73
2021/05/27 08:57:26;;;;;;;1.90;1.27;;;;;;;33.53;22.57;100477.59;1705224;82;21044;-71
2021/05/27 08:59:54;;;;;;;1.87;1.20;;;;;;;33.06;22.68;100485.30;1702976;83;21056;-73
2021/05/27 09:02:20;;;;;;;4.00;1.70;;;;;;;32.87;22.38;100488.98;1709344;83;21601;-73
2021/05/27 09:04:47;;;;;;;1.72;1.40;;;;;;;32.74;23.44;100484.63;1706601;83;21080;-72
2021/05/27 09:07:15;;;;;;;3.17;1.37;;;;;;;32.35;24.27;100483.28;1689207;83;21000;-72
2021/05/27 09:09:55;;;;;;;4.53;1.70;;;;;;;31.73;24.71;100486.43;1705406;83;22073;-72
2021/05/27 09:12:28;;;;;;;1.80;1.32;;;;;;;31.34;25.11;100483.38;1706407;83;21124;-70
2021/05/27 09:14:56;;;;;;;2.75;1.60;;;;;;;31.20;26.06;100470.81;1704416;82;21526;-68
2021/05/27 09:17:24;;;;;;;2.50;1.47;;;;;;;31.32;25.71;100464.82;1700182;82;22285;-75
2021/05/27 09:20:25;;;;;;;3.00;1.50;;;;;;;31.32;25.71;100464.82;1708615;82;21049;-71
2021/05/27 09:23:17;;;;;;;2.75;1.22;;;;;;;31.77;25.37;100460.98;1649975;86;21027;-69
2021/05/27 09:25:46;;;;;;;2.85;1.60;;;;;;;32.25;24.79;100457.22;1698309;83;20998;-70
2021/05/27 09:28:28;;;;;;;3.37;1.55;;;;;;;32.14;25.30;100456.78;1710777;83;21113;-73
2021/05/27 09:30:57;;;;;;;2.87;1.27;;;;;;;32.00;25.45;100466.97;1705276;82;21045;-70
2021/05/27 09:33:31;;;;;;;2.12;1.35;;;;;;;31.89;24.34;100451.13;1702269;81;21727;-72
2021/05/27 09:36:07;;;;;;;2.22;1.25;;;;;;;31.73;24.72;100458.13;1705536;82;21020;-71
2021/05/27 09:38:36;;;;;;;3.77;1.25;;;;;;;31.63;24.80;100456.58;1710241;82;21102;-75
2021/05/27 09:41:27;;;;;;;2.37;1.42;;;;;;;31.92;24.65;100456.45;1705969;82;21637;-70
2021/05/27 09:43:58;;;;;;;3.45;1.50;;;;;;;32.19;24.00;100449.84;1701377;82;21016;-70
2021/05/27 09:46:25;;;;;;;2.10;1.20;;;;;;;32.51;24.04;100453.09;1704569;82;21074;-73
2021/05/27 09:49:08;;;;;;;2.42;1.22;;;;;;;32.83;22.76;100448.34;1704465;83;21044;-68
2021/05/27 09:51:35;;;;;;;3.10;1.20;;;;;;;33.02;21.94;100441.17;1702827;82;21147;-74
2021/05/27 09:54:03;;;;;;;2.35;1.20;;;;;;;33.30;21.62;100441.97;1705860;82;21616;-73
2021/05/27 09:56:42;;;;;;;2.98;1.20;;;;;;;33.29;21.96;100442.53;1705632;81;20973;-70
2021/05/27 09:59:12;;;;;;;3.92;2.20;;;;;;;32.98;22.28;100448.35;1711443;82;22231;-73
2021/05/27 10:01:40;;;;;;;2.30;1.20;;;;;;;32.53;22.45;100445.44;1692655;83;21094;-73
2021/05/27 10:04:14;;;;;;;2.62;1.42;;;;;;;32.15;22.32;100425.43;1712918;82;21311;-73
2021/05/27 10:06:42;;;;;;;2.30;1.12;;;;;;;32.26;22.98;100432.61;1703197;82;20994;-73
2021/05/27 10:09:11;;;;;;;1.92;1.50;;;;;;;32.43;23.39;100429.87;1700942;82;20992;-73
2021/05/27 10:11:39;;;;;;;4.92;1.60;;;;;;;32.67;22.71;100435.98;1706157;81;21125;-73
2021/05/27 10:14:07;;;;;;;4.65;1.32;;;;;;;32.67;22.69;100435.98;1690482;82;21029;-72
2021/05/27 10:16:37;;;;;;;4.08;1.90;;;;;;;32.48;23.77;100436.98;1664007;84;21020;-69
2021/05/27 10:19:06;;;;;;;4.47;1.65;;;;;;;32.50;22.95;100437.98;1673159;84;21108;-74
2021/05/27 10:21:33;;;;;;;3.45;1.40;;;;;;;32.41;23.72;100438.05;1706324;83;21055;-76
2021/05/27 10:24:00;;;;;;;3.72;1.50;;;;;;;32.22;24.13;100439.20;1706952;83;21676;-74
2021/05/27 10:26:26;;;;;;;5.80;1.62;;;;;;;32.84;22.61;100432.37;1693540;83;21105;-68
2021/05/27 10:28:53;;;;;;;2.55;1.40;;;;;;;32.84;22.61;100432.37;1717465;82;20980;-74
2021/05/27 10:31:22;;;;;;;1.77;1.17;;;;;;;33.41;21.74;100433.14;1712966;83;21088;-75
2021/05/27 10:33:49;;;;;;;1.98;1.17;;;;;;;33.58;21.52;100429.50;1694385;83;20906;-78
2021/05/27 10:36:17;;;;;;;2.52;1.30;;;;;;;33.41;21.26;100420.17;1677601;82;21048;-69
2021/05/27 10:38:51;;;;;;;3.15;1.30;;;;;;;33.41;21.54;100429.63;1704661;82;21072;-75
2021/05/27 10:41:32;;;;;;;3.75;1.37;;;;;;;33.39;21.72;100425.12;1663924;84;21033;-71
2021/05/27 10:44:06;;;;;;;2.20;1.17;;;;;;;33.36;21.50;100425.23;1682581;83;21084;-75
2021/05/27 10:46:46;;;;;;;3.75;1.40;;;;;;;33.24;21.78;100426.53;1710770;83;21107;-69
2021/05/27 10:49:15;;;;;;;1.57;1.17;;;;;;;33.12;22.27;100422.44;1681321;84;21133;-75
2021/05/27 10:51:46;;;;;;;3.00;1.37;;;;;;;32.78;21.81;100430.22;1702152;83;20990;-72
2021/05/27 10:54:15;;;;;;;3.45;1.62;;;;;;;32.42;23.66;100429.61;1699305;83;21673;-73
2021/05/27 10:56:44;;;;;;;2.85;1.27;;;;;;;32.25;24.33;100427.55;1714448;83;22022;-71
2021/05/27 10:59:13;;;;;;;2.37;1.35;;;;;;;32.22;23.66;100424.38;1705330;83;20981;-71
2021/05/27 11:01:45;;;;;;;1.45;1.00;;;;;;;32.29;22.53;100423.87;1704668;83;21789;-73
2021/05/27 11:04:34;;;;;;;2.62;1.40;;;;;;;32.29;22.53;100423.87;1707051;83;21003;-72
2021/05/27 11:07:21;;;;;;;4.05;1.77;;;;;;;32.41;22.47;100422.64;1686339;83;25194;-72
2021/05/27 11:09:50;;;;;;;3.50;1.20;;;;;;;32.31;23.46;100415.44;1710557;83;20946;-69
2021/05/27 11:12:23;;;;;;;2.55;1.40;;;;;;;32.28;22.43;100423.64;1703649;83;21698;-71
2021/05/27 11:15:06;;;;;;;1.95;1.10;;;;;;;31.87;22.75;100408.89;1702098;83;21673;-74
2021/05/27 11:17:33;;;;;;;2.22;1.20;;;;;;;31.87;22.75;100408.89;1691370;83;21048;-73
2021/05/27 11:20:14;;;;;;;3.40;1.50;;;;;;;32.60;23.01;100412.77;1711424;83;21506;-73
2021/05/27 11:22:53;;;;;;;3.15;1.50;;;;;;;32.60;23.01;100412.77;1706385;83;21053;-71
2021/05/27 11:25:24;;;;;;;2.27;1.45;;;;;;;32.83;22.53;100401.66;1695753;83;21076;-69
2021/05/27 11:28:04;;;;;;;4.15;1.57;;;;;;;32.81;21.67;100395.81;1703520;83;21969;-71
2021/05/27 11:30:41;;;;;;;9.98;2.52;;;;;;;32.64;22.09;100406.16;1702014;83;21028;-69
2021/05/27 11:33:26;;;;;;;2.25;1.40;;;;;;;32.29;22.88;100401.50;1694013;83;21875;-66
2021/05/27 11:35:54;;;;;;;2.02;1.27;;;;;;;32.07;23.69;100400.64;1696012;83;21119;-71
2021/05/27 11:38:30;;;;;;;7.53;2.10;;;;;;;31.95;23.09;100399.98;1692006;83;21095;-69